Time;durP1;ratioP1;P1;durP2;ratioP2;P2;SDS_P1;SDS_P2;PMS_P1;PMS_P2;Temp;Humidity;BMP_temperature;BMP_pressure;BME280_temperature;BME280_humidity;BME280_pressure;Samples;Min_cycle;Max_cycle;Signal;HPM_P1;HPM_P2
2020/12/07 10:18:48;;;;;;;54.17;26.38;;;8.30;99.90;;;;;;5118893;27;20335;-74
2020/12/07 10:21:13;;;;;;;53.90;24.67;;;8.40;99.90;;;;;;5102509;28;20016;-74
2020/12/07 10:23:39;;;;;;;52.95;24.65;;;8.50;99.90;;;;;;5102922;28;20020;-74
2020/12/07 10:26:05;;;;;;;49.55;24.65;;;8.50;99.90;;;;;;5101405;28;20024;-74
2020/12/07 10:28:31;;;;;;;60.40;28.10;;;8.60;99.90;;;;;;5104432;28;20032;-77
2020/12/07 10:30:57;;;;;;;50.45;25.02;;;8.70;99.90;;;;;;5087748;27;20048;-77
2020/12/07 10:33:23;;;;;;;52.83;24.50;;;8.80;99.90;;;;;;5063095;28;20391;-76
2020/12/07 10:35:48;;;;;;;51.28;24.77;;;8.90;99.90;;;;;;5062734;28;20029;-76
2020/12/07 10:38:14;;;;;;;49.92;23.38;;;8.90;99.90;;;;;;5062502;28;20029;-76
2020/12/07 10:40:40;;;;;;;54.45;24.42;;;9.00;99.90;;;;;;5063570;28;20028;-77
2020/12/07 10:43:05;;;;;;;49.13;24.50;;;9.00;99.90;;;;;;5073553;28;20060;-77
2020/12/07 10:45:31;;;;;;;52.55;24.42;;;9.00;99.90;;;;;;5060460;28;20033;-75
2020/12/07 10:57:08;;;;;;;56.60;26.52;;;8.50;99.90;;;;;;5099772;27;20388;-77
2020/12/07 10:59:34;;;;;;;55.80;25.40;;;8.40;99.90;;;;;;5076898;28;20498;-77
2020/12/07 11:01:59;;;;;;;48.55;24.83;;;8.50;99.90;;;;;;5041599;28;20718;-73
2020/12/07 11:04:25;;;;;;;48.05;24.27;;;8.60;99.90;;;;;;5033598;28;20037;-74
2020/12/07 11:06:52;;;;;;;44.28;22.52;;;8.70;99.90;;;;;;5034280;28;20021;-75
2020/12/07 11:09:27;;;;;;;43.38;22.63;;;8.90;99.90;;;;;;5033864;28;20032;-73
2020/12/07 11:16:12;;;;;;;50.70;23.35;;;8.90;99.90;;;;;;5032099;28;20384;-75
2020/12/07 11:18:38;;;;;;;42.97;23.20;;;8.70;99.90;;;;;;4986926;28;20045;-74
2020/12/07 11:21:12;;;;;;;46.17;22.48;;;8.80;99.90;;;;;;4988934;28;20401;-74
2020/12/07 11:23:41;;;;;;;40.92;22.15;;;8.80;99.90;;;;;;4985165;28;20097;-74
2020/12/07 11:26:07;;;;;;;47.05;22.55;;;8.90;99.90;;;;;;4987020;28;20025;-74
2020/12/07 11:28:33;;;;;;;42.45;22.55;;;9.00;99.90;;;;;;4981893;28;20409;-73
2020/12/07 11:30:59;;;;;;;42.67;22.15;;;9.10;99.90;;;;;;4985592;28;20045;-76
2020/12/07 11:33:24;;;;;;;40.25;21.30;;;9.20;99.90;;;;;;4994800;28;22374;-77
2020/12/07 11:35:50;;;;;;;36.80;19.83;;;9.20;99.90;;;;;;4992719;28;20113;-76
2020/12/07 11:38:19;;;;;;;36.58;20.50;;;9.20;99.90;;;;;;4988362;28;20036;-77
2020/12/07 11:46:01;;;;;;;33.38;19.08;;;9.30;99.90;;;;;;4987755;28;20042;-76
2020/12/07 11:48:27;;;;;;;36.60;18.23;;;9.40;99.90;;;;;;4992045;28;20402;-75
2020/12/07 11:50:52;;;;;;;30.15;16.42;;;9.40;99.90;;;;;;4986644;28;20049;-76
2020/12/07 11:53:18;;;;;;;29.88;17.23;;;9.40;99.90;;;;;;4987122;28;21000;-76
2020/12/07 11:55:45;;;;;;;37.13;17.83;;;9.40;99.90;;;;;;4986237;28;20148;-75
2020/12/07 11:58:11;;;;;;;34.10;18.33;;;9.20;99.90;;;;;;4986981;28;20036;-78
2020/12/07 12:00:37;;;;;;;34.90;20.35;;;9.30;99.90;;;;;;4986488;28;20027;-76
2020/12/07 12:03:05;;;;;;;34.10;18.63;;;9.30;99.90;;;;;;4987975;28;20084;-78
2020/12/07 12:05:31;;;;;;;37.28;20.67;;;9.40;99.90;;;;;;4989264;28;20394;-75
2020/12/07 12:29:30;;;;;;;28.63;16.10;;;7.40;99.90;;;;;;5100440;27;20375;-76
2020/12/07 12:31:56;;;;;;;26.52;15.48;;;7.40;99.90;;;;;;5062901;28;21520;-77
2020/12/07 12:34:22;;;;;;;27.17;15.07;;;7.70;99.90;;;;;;5063369;28;20090;-77
2020/12/07 12:36:49;;;;;;;28.58;15.27;;;8.00;99.90;;;;;;5056143;28;20027;-77
2020/12/07 12:39:15;;;;;;;31.02;13.98;;;8.30;99.90;;;;;;5061081;28;20024;-75
2020/12/07 12:41:41;;;;;;;22.75;13.32;;;8.60;99.90;;;;;;5061392;28;20040;-76
2020/12/07 12:44:10;;;;;;;24.20;12.65;;;8.90;99.90;;;;;;5063515;28;20144;-73
2020/12/07 12:46:39;;;;;;;20.23;11.57;;;9.00;99.90;;;;;;5044799;28;20044;-73
2020/12/07 12:49:05;;;;;;;23.45;12.68;;;9.00;99.90;;;;;;5037216;28;20034;-73
2020/12/07 12:51:32;;;;;;;24.00;12.30;;;9.00;99.90;;;;;;5040546;28;20514;-73
2020/12/07 12:53:59;;;;;;;22.92;11.82;;;9.20;99.90;;;;;;5041465;28;20025;-73
2020/12/07 12:56:24;;;;;;;18.98;10.57;;;9.20;99.90;;;;;;5036233;28;20033;-74
2020/12/07 12:58:50;;;;;;;18.20;10.63;;;9.30;99.90;;;;;;5041417;28;20691;-72
2020/12/07 13:01:16;;;;;;;19.55;10.20;;;9.50;99.90;;;;;;5038128;28;20044;-76
2020/12/07 13:03:42;;;;;;;15.98;9.52;;;9.70;99.90;;;;;;5035953;28;20042;-76
2020/12/07 13:06:08;;;;;;;16.02;9.88;;;9.80;99.90;;;;;;5041706;28;20475;-76
2020/12/07 13:08:33;;;;;;;19.05;11.18;;;9.90;99.90;;;;;;5034967;28;20033;-75
2020/12/07 13:10:59;;;;;;;17.65;9.88;;;10.00;99.90;;;;;;5042140;28;20029;-77
2020/12/07 13:13:25;;;;;;;18.50;10.43;;;10.10;99.90;;;;;;5039906;28;20036;-78
2020/12/07 13:16:03;;;;;;;18.02;10.35;;;10.20;99.90;;;;;;5042961;28;20063;-78
2020/12/07 13:18:38;;;;;;;17.02;10.10;;;10.20;99.90;;;;;;5061540;28;20036;-78
2020/12/07 13:21:13;;;;;;;18.60;10.27;;;10.30;99.90;;;;;;5056343;28;20079;-79
2020/12/07 13:23:52;;;;;;;14.55;9.07;;;10.00;99.90;;;;;;5054864;28;20113;-78
2020/12/07 13:26:27;;;;;;;16.05;9.13;;;9.90;99.90;;;;;;5053545;28;20024;-77
2020/12/07 13:28:53;;;;;;;19.77;10.73;;;10.00;99.90;;;;;;5060103;28;20037;-79
2020/12/07 13:31:19;;;;;;;22.17;11.68;;;9.90;99.90;;;;;;5055661;28;20087;-78
2020/12/07 13:33:44;;;;;;;22.42;13.02;;;9.90;99.90;;;;;;5057366;28;20027;-77
2020/12/07 13:36:18;;;;;;;38.03;18.42;;;9.90;99.90;;;;;;5056911;28;20131;-78
2020/12/07 13:38:46;;;;;;;41.88;21.27;;;9.80;99.90;;;;;;5051928;28;20113;-79
2020/12/07 13:41:13;;;;;;;42.60;21.55;;;9.70;99.90;;;;;;5047307;28;20028;-77
2020/12/07 13:43:44;;;;;;;39.97;20.45;;;9.60;99.90;;;;;;5055497;28;20028;-78
2020/12/07 13:46:11;;;;;;;41.10;21.73;;;9.60;99.90;;;;;;5047458;28;20037;-77
2020/12/07 13:48:37;;;;;;;36.30;21.30;;;9.60;99.90;;;;;;5042950;28;20159;-78
2020/12/07 13:51:03;;;;;;;36.95;20.52;;;9.50;99.90;;;;;;5041563;28;20061;-77
2020/12/07 13:53:29;;;;;;;40.30;21.52;;;9.50;99.90;;;;;;5040166;28;21421;-77
